Time;durP1;ratioP1;P1;durP2;ratioP2;P2;SDS_P1;SDS_P2;PMS_P1;PMS_P2;Temp;Humidity;BMP_temperature;BMP_pressure;BME280_temperature;BME280_humidity;BME280_pressure;Samples;Min_cycle;Max_cycle;Signal;HPM_P1;HPM_P2
2023/06/10 04:02:45;;;;;;;0.90;0.90;;;14.10;99.90;;;;;;4985601;23;20498;-72
2023/06/10 04:05:12;;;;;;;1.87;1.20;;;14.10;99.90;;;;;;4991831;28;20518;-72
2023/06/10 04:07:40;;;;;;;0.60;0.60;;;14.10;99.90;;;;;;4991386;28;20846;-71
2023/06/10 04:10:08;;;;;;;0.63;0.63;;;14.10;99.90;;;;;;4992540;28;20467;-72
2023/06/10 04:12:35;;;;;;;1.83;1.30;;;14.10;99.90;;;;;;4972900;28;20475;-73
2023/06/10 04:15:02;;;;;;;1.20;1.20;;;14.10;99.90;;;;;;4970930;28;20841;-72
2023/06/10 04:17:28;;;;;;;2.27;2.17;;;14.10;99.90;;;;;;4973710;28;20483;-71
2023/06/10 04:19:57;;;;;;;2.93;0.70;;;14.20;99.90;;;;;;4974074;28;20467;-71
2023/06/10 04:22:24;;;;;;;0.57;0.57;;;14.20;99.90;;;;;;4972339;28;20578;-72
2023/06/10 04:24:51;;;;;;;2.60;1.00;;;14.20;99.90;;;;;;4973288;28;20979;-72
2023/06/10 04:27:18;;;;;;;1.17;1.17;;;14.20;99.90;;;;;;4973530;28;20538;-71
2023/06/10 04:29:45;;;;;;;2.30;1.10;;;14.20;99.90;;;;;;4973373;28;20468;-71
2023/06/10 04:32:12;;;;;;;1.07;0.60;;;14.20;99.90;;;;;;4974030;28;20843;-72
2023/06/10 04:34:40;;;;;;;1.27;1.27;;;14.20;99.90;;;;;;4973581;28;20464;-72
2023/06/10 04:37:08;;;;;;;1.53;1.53;;;14.20;99.90;;;;;;4970594;28;20494;-72
2023/06/10 04:39:34;;;;;;;3.20;1.30;;;14.30;99.90;;;;;;4973779;28;20466;-72
2023/06/10 04:42:01;;;;;;;0.50;0.50;;;14.30;99.90;;;;;;4974076;28;20484;-72
2023/06/10 04:44:28;;;;;;;0.37;0.37;;;14.40;99.90;;;;;;4966798;28;20472;-72
2023/06/10 04:46:55;;;;;;;0.70;0.70;;;14.40;99.90;;;;;;4971920;28;20766;-72
2023/06/10 04:49:22;;;;;;;2.13;1.30;;;14.50;99.90;;;;;;4973924;28;20570;-71
2023/06/10 04:51:51;;;;;;;8.80;1.60;;;14.60;99.90;;;;;;4973502;28;20892;-72
2023/06/10 04:54:19;;;;;;;14.43;1.30;;;14.60;99.90;;;;;;4971555;28;20468;-71
2023/06/10 04:56:46;;;;;;;2.20;1.27;;;14.70;99.90;;;;;;4973459;28;20470;-72
2023/06/10 04:59:14;;;;;;;0.53;0.53;;;14.70;99.90;;;;;;4972744;28;20558;-72
2023/06/10 05:01:41;;;;;;;3.83;0.90;;;14.80;99.90;;;;;;4973315;28;21004;-72
2023/06/10 05:04:07;;;;;;;3.07;0.50;;;14.90;99.90;;;;;;4972134;28;20472;-71
2023/06/10 05:06:36;;;;;;;4.53;1.73;;;14.90;99.90;;;;;;4972302;28;20475;-71
2023/06/10 05:09:03;;;;;;;1.40;1.13;;;15.10;99.90;;;;;;4973366;28;20484;-71
2023/06/10 05:11:31;;;;;;;3.17;1.67;;;15.20;99.90;;;;;;4972686;28;20488;-72
2023/06/10 05:13:58;;;;;;;3.30;1.40;;;15.30;99.90;;;;;;4965275;28;20478;-71
2023/06/10 05:16:24;;;;;;;0.83;0.83;;;15.30;99.90;;;;;;4971599;28;20960;-71
2023/06/10 05:18:51;;;;;;;1.03;1.03;;;15.30;99.90;;;;;;4970626;28;20771;-73
2023/06/10 05:21:18;;;;;;;0.90;0.90;;;15.40;99.90;;;;;;4970789;28;20487;-72
2023/06/10 05:23:45;;;;;;;1.30;1.30;;;15.50;99.90;;;;;;4968763;28;20467;-71
2023/06/10 05:26:12;;;;;;;1.10;1.10;;;15.30;99.90;;;;;;4972268;28;20471;-71
2023/06/10 05:28:40;;;;;;;1.13;1.13;;;15.30;99.90;;;;;;4972554;28;20492;-71
2023/06/10 05:31:06;;;;;;;2.73;0.70;;;15.50;99.90;;;;;;4970275;28;20492;-71
2023/06/10 05:33:33;;;;;;;1.57;1.47;;;15.60;99.90;;;;;;4971379;28;20901;-71
2023/06/10 05:36:00;;;;;;;0.87;0.87;;;15.60;99.90;;;;;;4970122;28;20463;-71
2023/06/10 05:38:27;;;;;;;1.47;1.37;;;15.70;99.90;;;;;;4971574;28;20467;-71
2023/06/10 05:40:56;;;;;;;4.10;2.03;;;15.60;99.90;;;;;;4971040;28;20488;-71
2023/06/10 05:43:23;;;;;;;1.90;0.90;;;15.60;99.90;;;;;;4963298;28;20964;-71
2023/06/10 05:45:51;;;;;;;6.93;1.40;;;15.70;99.90;;;;;;4968748;28;20471;-71
2023/06/10 05:48:19;;;;;;;2.00;1.60;;;16.00;99.90;;;;;;4971240;28;20490;-71
2023/06/10 05:50:48;;;;;;;1.27;0.93;;;16.40;99.90;;;;;;4966915;28;20482;-71
2023/06/10 05:53:15;;;;;;;0.70;0.70;;;16.60;99.90;;;;;;4971278;28;20527;-71
2023/06/10 05:55:43;;;;;;;1.47;1.33;;;16.90;99.90;;;;;;4970388;28;20514;-71
2023/06/10 05:58:10;;;;;;;1.23;1.13;;;17.30;99.90;;;;;;4970513;28;20502;-71
2023/06/10 06:00:36;;;;;;;1.60;1.30;;;18.00;99.90;;;;;;4965320;28;20497;-70
2023/06/10 06:03:04;;;;;;;0.60;0.60;;;18.70;99.90;;;;;;4969876;28;20467;-71
2023/06/10 06:05:34;;;;;;;0.90;0.77;;;19.40;99.90;;;;;;4972828;28;20460;-71
2023/06/10 06:08:01;;;;;;;0.73;0.73;;;20.00;99.90;;;;;;4968946;28;20533;-70
2023/06/10 06:10:28;;;;;;;1.70;1.70;;;20.30;99.90;;;;;;4971230;28;20479;-71
2023/06/10 06:12:55;;;;;;;1.70;1.50;;;21.00;99.90;;;;;;4963944;28;20469;-71
2023/06/10 06:15:22;;;;;;;1.50;0.90;;;21.50;99.90;;;;;;4970777;28;20500;-71
2023/06/10 06:17:48;;;;;;;0.97;0.97;;;21.70;99.90;;;;;;4970120;28;20475;-72
2023/06/10 06:20:16;;;;;;;2.20;0.80;;;22.20;99.90;;;;;;4972021;28;20460;-72
2023/06/10 06:22:43;;;;;;;1.23;0.83;;;22.50;99.90;;;;;;4966329;28;20544;-71
2023/06/10 06:25:10;;;;;;;0.60;0.60;;;23.00;99.90;;;;;;4966523;28;20474;-71
2023/06/10 06:27:37;;;;;;;1.80;0.90;;;23.40;99.90;;;;;;4972333;28;20462;-72
2023/06/10 06:30:04;;;;;;;1.57;0.87;;;23.50;99.90;;;;;;4971572;28;20488;-71
2023/06/10 06:32:30;;;;;;;1.10;0.70;;;23.60;99.90;;;;;;4970905;28;21020;-71
2023/06/10 06:34:58;;;;;;;0.70;0.70;;;23.70;99.90;;;;;;4970978;28;20474;-71
2023/06/10 06:37:26;;;;;;;0.83;0.60;;;24.00;99.90;;;;;;4970717;28;20899;-71
2023/06/10 06:39:54;;;;;;;1.80;1.37;;;24.50;99.90;;;;;;4969568;28;20479;-71
2023/06/10 06:42:21;;;;;;;0.60;0.60;;;24.60;99.90;;;;;;4969525;28;20494;-71
2023/06/10 06:44:48;;;;;;;0.73;0.73;;;24.60;99.90;;;;;;4969421;28;20585;-72
2023/06/10 06:47:17;;;;;;;2.57;1.00;;;25.00;99.90;;;;;;4969000;28;20478;-72
2023/06/10 06:49:44;;;;;;;0.80;0.80;;;25.20;99.90;;;;;;4971080;28;20546;-72
2023/06/10 06:52:10;;;;;;;1.10;1.10;;;25.30;99.90;;;;;;4972159;28;20486;-72
2023/06/10 06:54:39;;;;;;;0.60;0.60;;;25.20;99.90;;;;;;4970732;28;20482;-72
2023/06/10 06:57:06;;;;;;;0.67;0.67;;;24.30;99.90;;;;;;4970080;28;20467;-72
2023/06/10 06:59:33;;;;;;;0.90;0.90;;;24.60;99.90;;;;;;4960243;28;20467;-72
2023/06/10 07:02:00;;;;;;;1.20;1.00;;;25.00;99.90;;;;;;4969848;28;20495;-72
2023/06/10 07:04:27;;;;;;;0.97;0.97;;;25.10;99.90;;;;;;4970650;28;20474;-72
2023/06/10 07:06:54;;;;;;;0.57;0.57;;;24.30;99.90;;;;;;4972063;28;20464;-72
2023/06/10 07:09:20;;;;;;;0.70;0.60;;;24.10;99.90;;;;;;4969496;28;20496;-73
2023/06/10 07:11:48;;;;;;;0.70;0.70;;;24.10;99.90;;;;;;4968003;28;21027;-72
2023/06/10 07:14:15;;;;;;;0.80;0.80;;;24.70;99.90;;;;;;4973184;28;20463;-72
2023/06/10 07:16:42;;;;;;;0.83;0.83;;;25.00;99.90;;;;;;4975139;28;20470;-72
2023/06/10 07:19:09;;;;;;;0.80;0.80;;;25.00;99.90;;;;;;4972269;28;20550;-72
2023/06/10 07:21:37;;;;;;;0.60;0.60;;;25.10;99.90;;;;;;4974326;28;20487;-72
2023/06/10 07:24:04;;;;;;;0.83;0.83;;;25.50;99.90;;;;;;4974856;28;20467;-72
2023/06/10 07:26:32;;;;;;;0.80;0.80;;;25.40;99.90;;;;;;4974380;28;20464;-72
2023/06/10 07:29:00;;;;;;;1.00;1.00;;;25.70;99.90;;;;;;4972575;28;20489;-72
2023/06/10 07:31:26;;;;;;;0.93;0.93;;;26.10;99.90;;;;;;4970510;28;20547;-72
2023/06/10 07:33:53;;;;;;;1.10;1.10;;;26.30;99.90;;;;;;4974785;28;20466;-72
2023/06/10 07:36:20;;;;;;;2.63;1.07;;;26.20;99.90;;;;;;4974892;28;20460;-72
2023/06/10 07:38:47;;;;;;;1.40;0.90;;;25.90;99.90;;;;;;4970779;28;20567;-72
2023/06/10 07:41:14;;;;;;;0.90;0.90;;;25.60;99.90;;;;;;4971683;28;20495;-72
2023/06/10 07:43:40;;;;;;;1.70;1.30;;;25.80;99.90;;;;;;4974684;28;20909;-72
2023/06/10 07:46:08;;;;;;;0.60;0.60;;;25.80;99.90;;;;;;4974313;28;21237;-72
2023/06/10 07:48:35;;;;;;;1.33;1.23;;;26.00;99.90;;;;;;4972214;28;20483;-72
2023/06/10 07:51:02;;;;;;;0.57;0.57;;;26.20;99.90;;;;;;4971444;28;20885;-72
2023/06/10 07:53:29;;;;;;;1.73;1.10;;;26.30;99.90;;;;;;4973008;28;20503;-72
2023/06/10 07:55:56;;;;;;;1.17;1.13;;;26.50;99.90;;;;;;4974604;28;20459;-72
2023/06/10 07:58:22;;;;;;;1.07;1.07;;;26.80;99.90;;;;;;4969352;28;20478;-73
2023/06/10 08:00:49;;;;;;;0.97;0.97;;;26.60;99.90;;;;;;4969251;28;20574;-72
2023/06/10 08:03:17;;;;;;;0.90;0.90;;;26.50;99.90;;;;;;4970365;28;20939;-72
2023/06/10 08:05:44;;;;;;;1.07;1.07;;;26.00;99.90;;;;;;4973021;28;20463;-72
2023/06/10 08:08:11;;;;;;;0.80;0.80;;;26.40;99.90;;;;;;4973755;28;20471;-72
2023/06/10 08:10:37;;;;;;;1.33;1.20;;;26.60;99.90;;;;;;4973201;28;20491;-73
2023/06/10 08:13:04;;;;;;;0.83;0.83;;;26.20;99.90;;;;;;4964666;28;20855;-73
2023/06/10 08:15:31;;;;;;;0.80;0.80;;;25.90;99.90;;;;;;4973301;28;20468;-72
2023/06/10 08:17:57;;;;;;;1.10;1.10;;;25.90;99.90;;;;;;4967911;28;20465;-72
2023/06/10 08:20:26;;;;;;;0.77;0.77;;;25.50;99.90;;;;;;4966463;28;20538;-71
2023/06/10 08:22:53;;;;;;;2.33;1.03;;;25.60;99.90;;;;;;4972361;28;20472;-72
2023/06/10 08:25:21;;;;;;;1.07;1.07;;;25.90;99.90;;;;;;4973291;28;20583;-73
2023/06/10 08:27:48;;;;;;;1.17;1.17;;;26.10;99.90;;;;;;4973777;28;20551;-73
2023/06/10 08:30:15;;;;;;;0.93;0.93;;;26.40;99.90;;;;;;4970231;28;21038;-73
2023/06/10 08:32:41;;;;;;;0.80;0.70;;;26.20;99.90;;;;;;4971837;28;20468;-73
2023/06/10 08:35:09;;;;;;;0.57;0.57;;;26.20;99.90;;;;;;4971728;28;20487;-72
2023/06/10 08:37:37;;;;;;;0.70;0.70;;;26.00;99.90;;;;;;4975028;28;20460;-73
2023/06/10 08:40:04;;;;;;;1.33;1.27;;;25.90;99.90;;;;;;4973156;28;20456;-72
2023/06/10 08:42:38;;;;;;;1.10;1.10;;;26.10;99.90;;;;;;4972955;28;20499;-72
2023/06/10 08:45:08;;;;;;;1.50;1.50;;;26.20;99.90;;;;;;4973436;28;20463;-72
2023/06/10 08:47:38;;;;;;;1.53;1.43;;;25.80;99.90;;;;;;4974535;28;20491;-72
2023/06/10 08:50:05;;;;;;;1.57;1.00;;;25.10;99.90;;;;;;4972870;28;20538;-73
2023/06/10 08:52:38;;;;;;;0.93;0.93;;;25.40;99.90;;;;;;4972153;28;20483;-72
2023/06/10 08:55:12;;;;;;;1.20;1.20;;;25.70;99.90;;;;;;4973617;28;20991;-71
2023/06/10 08:57:41;;;;;;;1.20;1.20;;;25.90;99.90;;;;;;4968382;28;20468;-72
2023/06/10 09:00:09;;;;;;;1.13;1.13;;;25.60;99.90;;;;;;4972410;28;20464;-72
2023/06/10 09:02:36;;;;;;;1.03;1.03;;;25.80;99.90;;;;;;4971796;28;20499;-72
2023/06/10 09:05:04;;;;;;;2.13;1.30;;;25.80;99.90;;;;;;4973387;28;20471;-72
2023/06/10 09:07:34;;;;;;;1.27;1.27;;;26.00;99.90;;;;;;4974375;28;20813;-72
2023/06/10 09:10:06;;;;;;;1.20;1.20;;;25.90;99.90;;;;;;4974266;28;20486;-72
2023/06/10 09:12:33;;;;;;;0.90;0.90;;;26.00;99.90;;;;;;4968519;28;20484;-72
2023/06/10 09:15:00;;;;;;;2.20;1.60;;;25.60;99.90;;;;;;4974191;28;20496;-70
2023/06/10 09:17:28;;;;;;;1.60;1.60;;;25.40;99.90;;;;;;4969294;28;20476;-71
2023/06/10 09:19:55;;;;;;;1.87;1.73;;;25.30;99.90;;;;;;4971345;28;20470;-71
2023/06/10 09:22:22;;;;;;;1.63;1.63;;;25.40;99.90;;;;;;4970156;28;21035;-71
2023/06/10 09:24:49;;;;;;;1.00;1.00;;;25.50;99.90;;;;;;4972709;28;20466;-71
2023/06/10 09:27:17;;;;;;;1.40;1.30;;;25.60;99.90;;;;;;4972103;28;20466;-70
2023/06/10 09:29:48;;;;;;;1.20;1.20;;;25.30;99.90;;;;;;4970151;28;20592;-70
2023/06/10 09:32:16;;;;;;;1.50;1.40;;;25.20;99.90;;;;;;4969783;28;20527;-71
2023/06/10 09:34:42;;;;;;;1.87;1.77;;;25.40;99.90;;;;;;4971900;28;20467;-71
2023/06/10 09:37:12;;;;;;;1.60;1.60;;;25.30;99.90;;;;;;4968052;28;20474;-71
2023/06/10 09:39:39;;;;;;;2.07;1.83;;;25.40;99.90;;;;;;4972315;28;20493;-70
2023/06/10 09:42:18;;;;;;;1.77;1.67;;;25.10;99.90;;;;;;4970796;28;20499;-71
2023/06/10 09:44:51;;;;;;;1.83;1.83;;;24.90;99.90;;;;;;4966118;28;20780;-72
2023/06/10 09:47:22;;;;;;;2.00;1.53;;;24.70;99.90;;;;;;4961156;28;20522;-72
2023/06/10 09:49:49;;;;;;;1.40;1.40;;;24.40;99.90;;;;;;4972031;28;20495;-71
2023/06/10 09:52:22;;;;;;;1.97;1.87;;;24.10;99.90;;;;;;4970583;28;20523;-71
2023/06/10 09:54:49;;;;;;;1.57;1.50;;;23.70;99.90;;;;;;4970752;28;20474;-72
2023/06/10 09:57:19;;;;;;;1.97;1.87;;;23.80;99.90;;;;;;4964983;28;20487;-72
2023/06/10 09:59:46;;;;;;;2.33;2.20;;;23.90;99.90;;;;;;4971594;28;20461;-72
2023/06/10 10:02:15;;;;;;;1.10;1.10;;;24.20;99.90;;;;;;4964424;28;21007;-72
2023/06/10 10:04:42;;;;;;;1.97;1.87;;;24.40;99.90;;;;;;4966300;28;20567;-72
2023/06/10 10:07:10;;;;;;;1.60;1.60;;;24.50;99.90;;;;;;4972776;28;20464;-72
2023/06/10 10:09:37;;;;;;;4.47;2.10;;;24.50;99.90;;;;;;4972411;28;20573;-72
2023/06/10 10:12:08;;;;;;;2.00;1.80;;;24.40;99.90;;;;;;4967033;28;20488;-72
2023/06/10 10:14:37;;;;;;;2.30;2.00;;;24.50;99.90;;;;;;4971006;28;20471;-72
2023/06/10 10:17:08;;;;;;;2.50;2.30;;;24.40;99.90;;;;;;4968483;28;20685;-72
2023/06/10 10:19:37;;;;;;;2.73;2.53;;;24.60;99.90;;;;;;4972058;28;20471;-71
2023/06/10 10:22:09;;;;;;;2.27;2.17;;;24.70;99.90;;;;;;4970959;28;20495;-72
2023/06/10 10:24:39;;;;;;;2.30;1.60;;;24.70;99.90;;;;;;4969785;28;20629;-72
2023/06/10 10:27:16;;;;;;;1.50;1.50;;;24.60;99.90;;;;;;4971646;28;20463;-72
2023/06/10 10:29:48;;;;;;;2.37;2.27;;;24.80;99.90;;;;;;4952255;29;20492;-72
2023/06/10 10:32:17;;;;;;;2.07;2.00;;;25.00;99.90;;;;;;4966629;28;20492;-72
2023/06/10 10:34:49;;;;;;;2.13;2.03;;;25.10;99.90;;;;;;4971465;28;20471;-72
2023/06/10 10:37:16;;;;;;;1.70;1.70;;;25.10;99.90;;;;;;4972313;28;21043;-72
2023/06/10 10:39:43;;;;;;;2.33;2.23;;;24.90;99.90;;;;;;4971824;28;20475;-72
2023/06/10 10:42:10;;;;;;;1.80;1.70;;;24.90;99.90;;;;;;4970198;28;20492;-72
2023/06/10 10:44:39;;;;;;;1.77;1.67;;;24.90;99.90;;;;;;4967692;28;20479;-72
2023/06/10 10:47:09;;;;;;;2.07;2.07;;;25.00;99.90;;;;;;4971059;28;20487;-72
2023/06/10 10:49:38;;;;;;;2.60;2.50;;;25.10;99.90;;;;;;4970316;28;20565;-72
2023/06/10 10:52:06;;;;;;;3.70;3.40;;;25.10;99.90;;;;;;4970947;28;20487;-71
2023/06/10 10:54:36;;;;;;;2.50;2.40;;;25.10;99.90;;;;;;4962544;28;20476;-72
2023/06/10 10:57:11;;;;;;;2.47;2.37;;;25.20;99.90;;;;;;4964845;28;20523;-72
2023/06/10 10:59:46;;;;;;;2.13;2.13;;;25.30;99.90;;;;;;4965796;28;20459;-71
2023/06/10 11:02:18;;;;;;;2.27;2.17;;;25.40;99.90;;;;;;4969264;28;20910;-72
2023/06/10 11:04:48;;;;;;;1.90;1.90;;;25.50;99.90;;;;;;4970261;28;20483;-72
2023/06/10 11:07:16;;;;;;;3.03;2.20;;;25.50;99.90;;;;;;4972136;28;20460;-72
2023/06/10 11:09:59;;;;;;;2.53;2.40;;;25.60;99.90;;;;;;4970834;28;20492;-69
2023/06/10 11:12:26;;;;;;;3.27;3.03;;;25.60;99.90;;;;;;4961514;28;20556;-72
2023/06/10 11:14:56;;;;;;;2.57;2.27;;;25.70;99.90;;;;;;4970810;28;20459;-72
2023/06/10 11:17:25;;;;;;;2.80;2.70;;;25.70;99.90;;;;;;4969939;28;20546;-74
2023/06/10 11:19:51;;;;;;;2.20;2.10;;;25.70;99.90;;;;;;4971330;28;20507;-72
2023/06/10 11:22:18;;;;;;;3.10;3.00;;;25.90;99.90;;;;;;4970362;28;21032;-71
2023/06/10 11:24:49;;;;;;;2.57;2.50;;;26.10;99.90;;;;;;4970821;28;20558;-71
2023/06/10 11:27:17;;;;;;;3.03;2.90;;;26.10;99.90;;;;;;4964365;28;20487;-72
2023/06/10 11:30:19;;;;;;;3.10;2.90;;;26.00;99.90;;;;;;4970529;28;20878;-71
2023/06/10 11:32:52;;;;;;;2.10;2.00;;;26.00;99.90;;;;;;4968032;28;20868;-71
2023/06/10 11:35:21;;;;;;;2.33;2.33;;;26.00;99.90;;;;;;4971208;28;20461;-72
2023/06/10 11:37:49;;;;;;;2.30;2.30;;;26.00;99.90;;;;;;4970768;28;20609;-72
2023/06/10 11:40:15;;;;;;;3.00;2.80;;;26.00;99.90;;;;;;4965992;28;20500;-72
2023/06/10 11:42:43;;;;;;;3.17;2.87;;;26.00;99.90;;;;;;4969067;28;20470;-73
2023/06/10 11:45:11;;;;;;;2.57;2.47;;;26.00;99.90;;;;;;4970974;28;20467;-72
2023/06/10 11:47:37;;;;;;;2.80;2.70;;;26.10;99.90;;;;;;4971484;28;20474;-73
2023/06/10 11:50:06;;;;;;;2.93;2.80;;;26.10;99.90;;;;;;4968228;28;20499;-73
2023/06/10 11:52:37;;;;;;;2.70;2.60;;;26.10;99.90;;;;;;4971411;28;20491;-72
2023/06/10 11:55:05;;;;;;;3.07;2.80;;;26.20;99.90;;;;;;4971482;28;20467;-73
2023/06/10 11:57:35;;;;;;;2.23;2.13;;;26.40;99.90;;;;;;4973659;28;20879;-72
2023/06/10 12:00:05;;;;;;;2.47;2.30;;;26.50;99.90;;;;;;4974271;28;20464;-73
2023/06/10 12:02:32;;;;;;;4.03;2.47;;;26.50;99.90;;;;;;4966381;28;20504;-72
2023/06/10 12:05:12;;;;;;;2.77;2.60;;;26.50;99.90;;;;;;4973623;28;20540;-73
2023/06/10 12:07:39;;;;;;;2.37;2.37;;;26.50;99.90;;;;;;4975321;28;20464;-72
2023/06/10 12:10:06;;;;;;;3.10;2.70;;;26.50;99.90;;;;;;4972848;28;20489;-72
2023/06/10 12:12:36;;;;;;;2.37;2.20;;;26.80;99.90;;;;;;4965160;28;20485;-72
2023/06/10 12:15:05;;;;;;;3.27;3.07;;;26.80;99.90;;;;;;4973515;28;20540;-72
2023/06/10 12:17:39;;;;;;;2.67;2.57;;;26.90;99.90;;;;;;4974711;28;20465;-72
2023/06/10 12:20:08;;;;;;;2.70;2.53;;;26.90;99.90;;;;;;4973410;28;20489;-72
2023/06/10 12:22:39;;;;;;;2.77;2.67;;;26.90;99.90;;;;;;4967164;28;20541;-72
2023/06/10 12:25:08;;;;;;;2.93;2.73;;;27.00;99.90;;;;;;4973822;28;20988;-71
2023/06/10 12:27:36;;;;;;;2.33;2.33;;;27.10;99.90;;;;;;4974564;28;20477;-71
2023/06/10 12:30:05;;;;;;;3.13;3.00;;;27.20;99.90;;;;;;4970460;28;20518;-70
2023/06/10 12:32:40;;;;;;;2.40;2.40;;;27.30;99.90;;;;;;4973110;28;20571;-71
2023/06/10 12:35:08;;;;;;;2.70;2.63;;;27.30;99.90;;;;;;4973988;28;20983;-70
2023/06/10 12:37:36;;;;;;;3.07;3.03;;;27.40;99.90;;;;;;4974645;28;20468;-72
2023/06/10 12:40:08;;;;;;;2.63;2.63;;;27.50;99.90;;;;;;4972158;28;20483;-71
2023/06/10 12:42:36;;;;;;;2.83;2.60;;;27.40;99.90;;;;;;4973777;28;20489;-72
2023/06/10 12:45:05;;;;;;;2.37;2.27;;;27.30;99.90;;;;;;4973264;28;20468;-71
2023/06/10 12:47:34;;;;;;;3.17;3.03;;;27.30;99.90;;;;;;4974315;28;20997;-71
2023/06/10 12:50:02;;;;;;;2.00;1.90;;;27.30;99.90;;;;;;4974935;28;20583;-71
2023/06/10 12:52:28;;;;;;;2.83;2.73;;;27.30;99.90;;;;;;4972113;28;20483;-71
2023/06/10 12:54:55;;;;;;;2.60;2.43;;;27.40;99.90;;;;;;4973726;28;20828;-71
2023/06/10 12:57:23;;;;;;;2.53;2.40;;;27.50;99.90;;;;;;4970258;28;21011;-74
2023/06/10 12:59:52;;;;;;;2.37;2.27;;;27.50;99.90;;;;;;4968424;28;20465;-74
2023/06/10 13:02:19;;;;;;;3.73;2.60;;;27.60;99.90;;;;;;4972001;28;20851;-74
2023/06/10 13:04:46;;;;;;;2.60;2.50;;;27.70;99.90;;;;;;4973056;28;20495;-74
2023/06/10 13:07:13;;;;;;;2.33;2.33;;;27.90;99.30;;;;;;4971764;28;21146;-74
2023/06/10 13:09:40;;;;;;;2.73;2.70;;;28.10;99.00;;;;;;4972626;28;20552;-74
2023/06/10 13:12:09;;;;;;;2.97;2.97;;;28.20;98.80;;;;;;4964620;28;21372;-74
2023/06/10 13:14:38;;;;;;;2.70;2.50;;;28.30;98.80;;;;;;4972456;28;20493;-73
2023/06/10 13:17:06;;;;;;;2.83;2.63;;;28.40;98.00;;;;;;4954205;28;20538;-74
2023/06/10 13:19:33;;;;;;;3.20;3.03;;;28.60;97.30;;;;;;4971272;28;20594;-71
2023/06/10 13:21:59;;;;;;;2.70;2.60;;;28.60;96.60;;;;;;4973399;28;20518;-71
2023/06/10 13:24:27;;;;;;;3.20;3.10;;;28.60;96.30;;;;;;4973087;28;20505;-71
2023/06/10 13:26:54;;;;;;;2.90;2.80;;;28.70;96.00;;;;;;4973437;28;20892;-71
2023/06/10 13:29:21;;;;;;;2.90;2.80;;;28.60;96.00;;;;;;4970306;28;20467;-72
2023/06/10 13:31:49;;;;;;;2.50;2.50;;;28.60;96.20;;;;;;4967731;28;20489;-72
2023/06/10 13:34:16;;;;;;;3.03;2.73;;;28.50;96.30;;;;;;4972751;28;20521;-71
2023/06/10 13:36:43;;;;;;;2.40;2.40;;;28.40;96.80;;;;;;4973341;28;20581;-72
2023/06/10 13:39:10;;;;;;;3.10;3.00;;;28.40;96.50;;;;;;4965586;28;20495;-72
2023/06/10 13:41:36;;;;;;;2.20;2.20;;;28.50;96.30;;;;;;4969815;28;20569;-72
2023/06/10 13:44:03;;;;;;;2.60;2.50;;;28.40;95.80;;;;;;4960438;28;20483;-73
2023/06/10 13:46:30;;;;;;;2.80;2.70;;;28.50;95.90;;;;;;4963667;28;20475;-73
2023/06/10 13:48:58;;;;;;;2.67;2.67;;;28.50;95.50;;;;;;4971941;28;20472;-73
2023/06/10 13:51:25;;;;;;;2.40;2.30;;;28.60;95.80;;;;;;4971038;28;21340;-72
2023/06/10 13:53:52;;;;;;;2.30;2.30;;;28.70;95.60;;;;;;4971376;28;20774;-73
2023/06/10 13:56:19;;;;;;;3.33;3.23;;;28.70;95.10;;;;;;4969416;28;20569;-72
2023/06/10 13:58:46;;;;;;;2.90;2.70;;;28.60;95.20;;;;;;4971770;28;20474;-72
2023/06/10 14:01:12;;;;;;;2.80;2.70;;;28.30;95.20;;;;;;4969505;28;20569;-71
2023/06/10 14:03:39;;;;;;;1.93;1.93;;;28.40;95.60;;;;;;4971101;28;20470;-73
2023/06/10 14:06:08;;;;;;;3.50;3.20;;;28.50;94.90;;;;;;4967682;28;20488;-70
2023/06/10 14:08:35;;;;;;;2.90;2.80;;;28.60;95.40;;;;;;4966385;28;20927;-71
2023/06/10 14:11:01;;;;;;;3.17;3.07;;;28.70;95.00;;;;;;4971240;28;20494;-72
2023/06/10 14:13:29;;;;;;;3.70;3.50;;;28.80;94.50;;;;;;4968543;28;20833;-72
2023/06/10 14:15:56;;;;;;;3.00;2.90;;;28.80;94.90;;;;;;4966631;28;20466;-71
2023/06/10 14:18:22;;;;;;;3.07;2.93;;;28.60;94.60;;;;;;4971806;28;21016;-71
2023/06/10 14:20:49;;;;;;;2.53;2.43;;;28.30;94.80;;;;;;4970225;28;20505;-71
2023/06/10 14:23:17;;;;;;;2.90;2.90;;;28.20;94.80;;;;;;4968522;28;20469;-72
2023/06/10 14:25:44;;;;;;;3.10;3.07;;;28.10;95.40;;;;;;4970884;28;20894;-71
2023/06/10 14:28:11;;;;;;;3.30;3.10;;;28.10;95.80;;;;;;4971164;28;20826;-71
2023/06/10 14:30:37;;;;;;;3.37;3.17;;;28.10;95.40;;;;;;4956424;28;20581;-72
2023/06/10 14:33:05;;;;;;;2.53;2.43;;;28.20;95.30;;;;;;4965715;28;20469;-71
2023/06/10 14:35:32;;;;;;;3.27;3.17;;;28.40;95.00;;;;;;4971810;28;20470;-73
2023/06/10 14:37:58;;;;;;;3.00;2.90;;;28.50;94.50;;;;;;4972021;28;20985;-72
2023/06/10 14:40:28;;;;;;;3.40;3.30;;;28.80;94.40;;;;;;4971246;28;20461;-72
2023/06/10 14:42:55;;;;;;;3.00;2.90;;;28.90;94.10;;;;;;4970290;28;20467;-71
2023/06/10 14:45:22;;;;;;;2.90;2.80;;;28.80;93.30;;;;;;4970537;28;20473;-72
2023/06/10 14:47:49;;;;;;;3.67;3.50;;;28.70;93.20;;;;;;4971906;28;20463;-71
2023/06/10 14:50:15;;;;;;;2.77;2.67;;;29.00;93.00;;;;;;4971511;28;20973;-72
2023/06/10 14:52:42;;;;;;;2.47;2.40;;;29.30;92.80;;;;;;4969058;28;20485;-72
2023/06/10 14:55:09;;;;;;;2.77;2.63;;;29.50;92.60;;;;;;4971618;28;20461;-72
2023/06/10 14:57:37;;;;;;;2.90;2.90;;;29.20;92.00;;;;;;4971834;28;20978;-72
2023/06/10 15:00:05;;;;;;;2.90;2.80;;;28.90;92.50;;;;;;4972135;28;20476;-73
2023/06/10 15:02:32;;;;;;;2.70;2.53;;;28.90;92.60;;;;;;4969290;28;20993;-72
2023/06/10 15:04:59;;;;;;;3.20;3.10;;;28.90;91.90;;;;;;4970949;28;20481;-72
2023/06/10 15:07:25;;;;;;;2.67;2.57;;;28.90;92.30;;;;;;4971474;28;20924;-73
2023/06/10 15:09:52;;;;;;;2.80;2.70;;;28.70;92.50;;;;;;4971296;28;21149;-72
2023/06/10 15:12:19;;;;;;;2.80;2.70;;;28.50;92.20;;;;;;4960367;28;20500;-71
2023/06/10 15:14:47;;;;;;;2.97;2.87;;;28.50;92.40;;;;;;4970375;28;20467;-71
2023/06/10 15:17:13;;;;;;;2.93;2.77;;;28.50;92.10;;;;;;4972083;28;20463;-74
2023/06/10 15:19:40;;;;;;;2.47;2.47;;;28.90;91.40;;;;;;4971602;28;21087;-71
2023/06/10 15:22:07;;;;;;;3.13;3.03;;;29.20;91.10;;;;;;4970252;28;20535;-72
2023/06/10 15:24:34;;;;;;;3.27;3.17;;;29.40;90.50;;;;;;4969906;28;20553;-72
2023/06/10 15:27:00;;;;;;;3.77;3.57;;;29.50;90.30;;;;;;4971375;28;20464;-72
2023/06/10 15:29:28;;;;;;;5.03;3.67;;;29.30;89.70;;;;;;4970565;28;20461;-72
2023/06/10 15:31:56;;;;;;;3.07;2.97;;;29.20;89.90;;;;;;4971498;28;20494;-71
2023/06/10 15:34:22;;;;;;;3.10;1.60;;;29.20;90.30;;;;;;4973289;28;20480;-71
2023/06/10 15:36:49;;;;;;;3.50;1.87;;;29.10;94.40;;;;;;4975241;28;20470;-72
2023/06/10 15:39:16;;;;;;;2.13;1.70;;;28.90;96.70;;;;;;4975141;28;20471;-72
2023/06/10 15:41:42;;;;;;;1.70;1.70;;;28.70;98.00;;;;;;4974236;28;20488;-72
2023/06/10 15:44:09;;;;;;;1.60;1.60;;;28.30;98.40;;;;;;4972875;28;20821;-73
2023/06/10 15:46:36;;;;;;;1.93;1.93;;;28.10;99.00;;;;;;4975107;28;20472;-72
2023/06/10 15:49:05;;;;;;;2.40;2.40;;;28.00;98.90;;;;;;4975176;28;20463;-71
2023/06/10 15:51:31;;;;;;;1.77;1.77;;;28.00;97.50;;;;;;4973738;28;20492;-72
2023/06/10 15:53:58;;;;;;;2.30;1.97;;;28.00;98.30;;;;;;4971205;28;20841;-72
2023/06/10 15:56:25;;;;;;;1.93;1.83;;;28.00;98.20;;;;;;4975144;28;20468;-72
2023/06/10 15:58:52;;;;;;;1.67;1.67;;;28.10;98.70;;;;;;4975712;28;20559;-72
2023/06/10 16:01:19;;;;;;;1.70;1.70;;;28.00;99.30;;;;;;4973738;28;20496;-72
2023/06/10 16:03:45;;;;;;;2.27;2.13;;;28.00;99.20;;;;;;4973135;28;20477;-72
2023/06/10 16:06:15;;;;;;;1.90;1.80;;;28.10;98.80;;;;;;4974738;28;20475;-72
2023/06/10 16:08:41;;;;;;;2.10;2.10;;;28.10;99.90;;;;;;4974899;28;20815;-72
2023/06/10 16:11:09;;;;;;;1.70;1.60;;;28.10;99.90;;;;;;4972691;28;20500;-72
2023/06/10 16:13:37;;;;;;;1.63;1.63;;;28.00;99.90;;;;;;4966962;28;20540;-71
2023/06/10 16:16:03;;;;;;;1.80;1.70;;;28.00;99.90;;;;;;4974060;28;20460;-72
2023/06/10 16:18:30;;;;;;;2.77;1.90;;;28.00;99.90;;;;;;4974747;28;20464;-72
2023/06/10 16:20:57;;;;;;;2.03;1.93;;;27.80;99.90;;;;;;4973423;28;20493;-72
2023/06/10 16:23:25;;;;;;;1.73;1.67;;;27.90;99.90;;;;;;4973178;28;20838;-71
2023/06/10 16:25:51;;;;;;;1.60;1.57;;;27.90;99.90;;;;;;4974765;28;20489;-71
2023/06/10 16:28:18;;;;;;;1.60;1.60;;;27.90;99.90;;;;;;4974838;28;20472;-72
2023/06/10 16:30:45;;;;;;;2.00;2.00;;;27.80;99.90;;;;;;4973405;28;20485;-74
2023/06/10 16:33:12;;;;;;;1.70;1.70;;;27.70;99.90;;;;;;4972823;28;20485;-71
2023/06/10 16:35:38;;;;;;;1.87;1.73;;;27.60;99.90;;;;;;4972989;28;20476;-72
2023/06/10 16:38:05;;;;;;;4.97;4.57;;;27.50;99.90;;;;;;4974295;28;20474;-71
2023/06/10 16:40:33;;;;;;;11.23;7.03;;;27.40;99.90;;;;;;4974102;28;20491;-71
2023/06/10 16:43:00;;;;;;;11.33;7.17;;;27.40;99.90;;;;;;4968630;28;20468;-73
2023/06/10 16:45:27;;;;;;;7.77;6.97;;;27.30;99.90;;;;;;4964326;28;20501;-71
2023/06/10 16:47:54;;;;;;;8.97;6.63;;;27.30;99.90;;;;;;4970591;28;20478;-71
2023/06/10 16:50:20;;;;;;;4.40;3.63;;;27.20;99.90;;;;;;4972296;28;20494;-72